ZYTX/SHE METAR and TAF weather

Enter ICAO airport designator
Station Type Date Time Source
ZYTX METAR 2019/04/25 12:30 UTC NOAA

ZYTX 251230Z 04002MPS CAVOK 07/M00 Q1013 NOSIG


Station Type Date Time Source
ZYTX Decoded METAR 2019/04/25 12:30 UTC NOAA

Shenyang / Taokian, China (ZYTX) 41-48N 123-24E
Apr 25, 2019 - 08:30 AM EDT / 2019.04.25 1230 UTC
Wind: from the NE (040 degrees) at 4 MPH (4 KT):0
Visibility: greater than 7 mile(s):0
Temperature: 44 F (7 C)
Dew Point: 32 F (0 C)
Relative Humidity: 60%
Pressure (altimeter): 29.91 in. Hg (1013 hPa)
ob: ZYTX 251230Z 04002MPS CAVOK 07/M00 Q1013 NOSIG
cycle: 12

Station Type Date Time Source
ZYTX TAF 2019/04/25 12:03 UTC NOAA

TAF ZYTX 250905Z 2512/2612 13004MPS CAVOK TX15/2606Z TN03/2521Z

Example: see airport list